sensor_id;sensor_type;location;lat;lon;timestamp;temperature;humidity
62991;DHT22;49084;48.204;16.202;2023-04-02T00:07:41;9.50;99.90
62991;DHT22;49084;48.204;16.202;2023-04-02T00:10:36;9.50;99.90
62991;DHT22;49084;48.204;16.202;2023-04-02T00:15:28;9.50;99.90
62991;DHT22;49084;48.204;16.202;2023-04-02T00:17:55;9.40;99.90
62991;DHT22;49084;48.204;16.202;2023-04-02T00:20:21;9.30;99.90
62991;DHT22;49084;48.204;16.202;2023-04-02T00:22:48;9.20;99.90
62991;DHT22;49084;48.204;16.202;2023-04-02T00:25:14;9.10;99.90
62991;DHT22;49084;48.204;16.202;2023-04-02T00:27:41;9.10;99.90
62991;DHT22;49084;48.204;16.202;2023-04-02T00:30:09;9.00;99.90
62991;DHT22;49084;48.204;16.202;2023-04-02T00:32:36;9.00;99.90
62991;DHT22;49084;48.204;16.202;2023-04-02T00:35:02;9.00;99.90
62991;DHT22;49084;48.204;16.202;2023-04-02T00:37:30;8.90;99.90
62991;DHT22;49084;48.204;16.202;2023-04-02T00:42:41;9.00;99.90
62991;DHT22;49084;48.204;16.202;2023-04-02T00:45:23;9.00;99.90
62991;DHT22;49084;48.204;16.202;2023-04-02T00:47:50;9.00;99.90
62991;DHT22;49084;48.204;16.202;2023-04-02T00:50:30;9.00;99.90
62991;DHT22;49084;48.204;16.202;2023-04-02T00:52:59;9.00;99.90
62991;DHT22;49084;48.204;16.202;2023-04-02T00:55:39;9.00;99.90
62991;DHT22;49084;48.204;16.202;2023-04-02T00:58:24;9.10;99.90
62991;DHT22;49084;48.204;16.202;2023-04-02T01:00:51;9.10;99.90
62991;DHT22;49084;48.204;16.202;2023-04-02T01:05:46;9.00;99.90
62991;DHT22;49084;48.204;16.202;2023-04-02T01:13:53;9.10;99.90
62991;DHT22;49084;48.204;16.202;2023-04-02T01:22:11;9.10;99.90
62991;DHT22;49084;48.204;16.202;2023-04-02T01:24:33;9.10;99.90
62991;DHT22;49084;48.204;16.202;2023-04-02T01:27:31;9.20;99.90
62991;DHT22;49084;48.204;16.202;2023-04-02T01:30:00;9.20;99.90
62991;DHT22;49084;48.204;16.202;2023-04-02T01:32:29;9.10;99.90
62991;DHT22;49084;48.204;16.202;2023-04-02T01:34:56;9.10;99.90
62991;DHT22;49084;48.204;16.202;2023-04-02T01:45:23;9.20;99.90
62991;DHT22;49084;48.204;16.202;2023-04-02T01:47:49;9.20;99.90
62991;DHT22;49084;48.204;16.202;2023-04-02T01:52:46;9.10;99.90
62991;DHT22;49084;48.204;16.202;2023-04-02T01:55:14;9.10;99.90
62991;DHT22;49084;48.204;16.202;2023-04-02T01:57:42;9.10;99.90
62991;DHT22;49084;48.204;16.202;2023-04-02T02:00:13;9.10;99.90
62991;DHT22;49084;48.204;16.202;2023-04-02T02:02:41;9.10;99.90
62991;DHT22;49084;48.204;16.202;2023-04-02T02:05:16;9.10;99.90
62991;DHT22;49084;48.204;16.202;2023-04-02T02:07:43;9.10;99.90
62991;DHT22;49084;48.204;16.202;2023-04-02T02:10:34;9.10;99.90
62991;DHT22;49084;48.204;16.202;2023-04-02T02:12:59;9.10;99.90
62991;DHT22;49084;48.204;16.202;2023-04-02T02:15:25;9.10;99.90
62991;DHT22;49084;48.204;16.202;2023-04-02T02:18:02;9.10;99.90
62991;DHT22;49084;48.204;16.202;2023-04-02T02:20:29;9.20;99.90
62991;DHT22;49084;48.204;16.202;2023-04-02T02:22:55;9.20;99.90
62991;DHT22;49084;48.204;16.202;2023-04-02T02:25:26;9.10;99.90
62991;DHT22;49084;48.204;16.202;2023-04-02T02:30:32;9.20;99.90
62991;DHT22;49084;48.204;16.202;2023-04-02T02:33:25;9.10;99.90
62991;DHT22;49084;48.204;16.202;2023-04-02T02:36:04;9.20;99.90
62991;DHT22;49084;48.204;16.202;2023-04-02T02:38:52;9.20;99.90
62991;DHT22;49084;48.204;16.202;2023-04-02T02:41:41;9.10;99.90
62991;DHT22;49084;48.204;16.202;2023-04-02T02:46:39;9.00;99.90
62991;DHT22;49084;48.204;16.202;2023-04-02T02:49:12;9.00;99.90
62991;DHT22;49084;48.204;16.202;2023-04-02T02:51:47;8.90;99.90
62991;DHT22;49084;48.204;16.202;2023-04-02T02:54:16;8.90;99.90
62991;DHT22;49084;48.204;16.202;2023-04-02T02:56:48;8.90;99.90
62991;DHT22;49084;48.204;16.202;2023-04-02T02:59:16;8.80;99.90
62991;DHT22;49084;48.204;16.202;2023-04-02T03:01:44;8.80;99.90
62991;DHT22;49084;48.204;16.202;2023-04-02T03:04:12;8.80;99.90
62991;DHT22;49084;48.204;16.202;2023-04-02T03:06:40;8.80;99.90
62991;DHT22;49084;48.204;16.202;2023-04-02T03:09:16;8.70;99.90
62991;DHT22;49084;48.204;16.202;2023-04-02T03:16:45;8.70;99.90
62991;DHT22;49084;48.204;16.202;2023-04-02T03:19:30;8.70;99.90
62991;DHT22;49084;48.204;16.202;2023-04-02T03:22:10;8.70;99.90
62991;DHT22;49084;48.204;16.202;2023-04-02T03:27:23;8.70;99.90
62991;DHT22;49084;48.204;16.202;2023-04-02T03:32:57;8.70;99.90
62991;DHT22;49084;48.204;16.202;2023-04-02T03:38:27;8.60;99.90
62991;DHT22;49084;48.204;16.202;2023-04-02T03:43:39;8.60;99.90
62991;DHT22;49084;48.204;16.202;2023-04-02T03:48:44;8.60;99.90
62991;DHT22;49084;48.204;16.202;2023-04-02T03:51:23;8.60;99.90
62991;DHT22;49084;48.204;16.202;2023-04-02T03:53:50;8.60;99.90
62991;DHT22;49084;48.204;16.202;2023-04-02T03:56:29;8.60;99.90
62991;DHT22;49084;48.204;16.202;2023-04-02T04:02:14;8.60;99.90
62991;DHT22;49084;48.204;16.202;2023-04-02T04:04:43;8.60;99.90
62991;DHT22;49084;48.204;16.202;2023-04-02T04:07:35;8.60;99.90
62991;DHT22;49084;48.204;16.202;2023-04-02T04:10:01;8.60;99.90
62991;DHT22;49084;48.204;16.202;2023-04-02T04:12:39;8.60;99.90
62991;DHT22;49084;48.204;16.202;2023-04-02T04:15:20;8.60;99.90
62991;DHT22;49084;48.204;16.202;2023-04-02T04:23:29;8.70;99.90
62991;DHT22;49084;48.204;16.202;2023-04-02T04:31:48;8.70;99.90
62991;DHT22;49084;48.204;16.202;2023-04-02T04:34:25;8.60;99.90
62991;DHT22;49084;48.204;16.202;2023-04-02T04:37:01;8.70;99.90
62991;DHT22;49084;48.204;16.202;2023-04-02T04:39:49;8.70;99.90
62991;DHT22;49084;48.204;16.202;2023-04-02T04:42:22;8.70;99.90
62991;DHT22;49084;48.204;16.202;2023-04-02T04:47:43;8.70;99.90
62991;DHT22;49084;48.204;16.202;2023-04-02T04:50:13;8.70;99.90
62991;DHT22;49084;48.204;16.202;2023-04-02T04:52:42;8.70;99.90
62991;DHT22;49084;48.204;16.202;2023-04-02T04:55:45;8.70;99.90
62991;DHT22;49084;48.204;16.202;2023-04-02T05:03:44;8.70;99.90
62991;DHT22;49084;48.204;16.202;2023-04-02T05:06:44;8.70;99.90
62991;DHT22;49084;48.204;16.202;2023-04-02T05:14:36;8.60;99.90
62991;DHT22;49084;48.204;16.202;2023-04-02T05:17:07;8.60;99.90
62991;DHT22;49084;48.204;16.202;2023-04-02T05:20:06;8.50;99.90
62991;DHT22;49084;48.204;16.202;2023-04-02T05:23:01;8.60;99.90
62991;DHT22;49084;48.204;16.202;2023-04-02T05:25:30;8.50;99.90
62991;DHT22;49084;48.204;16.202;2023-04-02T05:33:05;8.50;99.90
62991;DHT22;49084;48.204;16.202;2023-04-02T05:35:46;8.60;99.90
62991;DHT22;49084;48.204;16.202;2023-04-02T05:38:25;8.60;99.90
62991;DHT22;49084;48.204;16.202;2023-04-02T05:41:33;8.50;99.90
62991;DHT22;49084;48.204;16.202;2023-04-02T05:46:46;8.50;99.90
62991;DHT22;49084;48.204;16.202;2023-04-02T05:49:22;8.50;99.90
62991;DHT22;49084;48.204;16.202;2023-04-02T05:51:52;8.50;99.90
62991;DHT22;49084;48.204;16.202;2023-04-02T05:54:26;8.50;99.90
62991;DHT22;49084;48.204;16.202;2023-04-02T05:56:56;8.40;99.90
62991;DHT22;49084;48.204;16.202;2023-04-02T05:59:28;8.40;99.90
62991;DHT22;49084;48.204;16.202;2023-04-02T06:05:11;8.40;99.90
62991;DHT22;49084;48.204;16.202;2023-04-02T06:10:26;8.40;99.90
62991;DHT22;49084;48.204;16.202;2023-04-02T06:12:56;8.40;99.90
62991;DHT22;49084;48.204;16.202;2023-04-02T06:15:26;8.40;99.90
62991;DHT22;49084;48.204;16.202;2023-04-02T06:18:00;8.40;99.90
62991;DHT22;49084;48.204;16.202;2023-04-02T06:20:29;8.40;99.90
62991;DHT22;49084;48.204;16.202;2023-04-02T06:23:06;8.40;99.90
62991;DHT22;49084;48.204;16.202;2023-04-02T06:25:38;8.50;99.90
62991;DHT22;49084;48.204;16.202;2023-04-02T06:28:07;8.50;99.90
62991;DHT22;49084;48.204;16.202;2023-04-02T06:30:38;8.60;99.90
62991;DHT22;49084;48.204;16.202;2023-04-02T06:33:06;8.50;99.90
62991;DHT22;49084;48.204;16.202;2023-04-02T06:35:35;8.60;99.90
62991;DHT22;49084;48.204;16.202;2023-04-02T06:38:03;8.60;99.90
62991;DHT22;49084;48.204;16.202;2023-04-02T06:43:01;8.60;99.90
62991;DHT22;49084;48.204;16.202;2023-04-02T06:45:34;8.70;99.90
62991;DHT22;49084;48.204;16.202;2023-04-02T06:48:03;8.70;99.90
62991;DHT22;49084;48.204;16.202;2023-04-02T06:50:42;8.70;99.90
62991;DHT22;49084;48.204;16.202;2023-04-02T06:53:24;8.70;99.90
62991;DHT22;49084;48.204;16.202;2023-04-02T06:55:57;8.90;99.90
62991;DHT22;49084;48.204;16.202;2023-04-02T06:58:25;9.20;99.90
62991;DHT22;49084;48.204;16.202;2023-04-02T07:00:51;9.30;99.90
62991;DHT22;49084;48.204;16.202;2023-04-02T07:03:31;9.40;99.90
62991;DHT22;49084;48.204;16.202;2023-04-02T07:05:59;9.40;99.90
62991;DHT22;49084;48.204;16.202;2023-04-02T07:08:26;9.40;99.90
62991;DHT22;49084;48.204;16.202;2023-04-02T07:10:51;9.50;99.90
62991;DHT22;49084;48.204;16.202;2023-04-02T07:13:22;9.40;99.90
62991;DHT22;49084;48.204;16.202;2023-04-02T07:15:50;9.30;99.90
62991;DHT22;49084;48.204;16.202;2023-04-02T07:18:26;9.40;99.90
62991;DHT22;49084;48.204;16.202;2023-04-02T07:20:53;9.40;99.90
62991;DHT22;49084;48.204;16.202;2023-04-02T07:23:18;9.40;99.90
62991;DHT22;49084;48.204;16.202;2023-04-02T07:25:49;9.40;99.90
62991;DHT22;49084;48.204;16.202;2023-04-02T07:28:16;9.40;99.90
62991;DHT22;49084;48.204;16.202;2023-04-02T07:30:43;9.50;99.90
62991;DHT22;49084;48.204;16.202;2023-04-02T07:33:17;9.40;99.90
62991;DHT22;49084;48.204;16.202;2023-04-02T07:35:44;9.30;99.90
62991;DHT22;49084;48.204;16.202;2023-04-02T07:38:10;9.30;99.90
62991;DHT22;49084;48.204;16.202;2023-04-02T07:40:35;9.40;99.90
62991;DHT22;49084;48.204;16.202;2023-04-02T07:43:01;9.30;99.90
62991;DHT22;49084;48.204;16.202;2023-04-02T07:45:27;9.40;99.90
62991;DHT22;49084;48.204;16.202;2023-04-02T07:47:53;9.30;99.90
62991;DHT22;49084;48.204;16.202;2023-04-02T07:50:19;9.40;99.90
62991;DHT22;49084;48.204;16.202;2023-04-02T07:52:44;9.30;99.90
62991;DHT22;49084;48.204;16.202;2023-04-02T07:55:13;9.30;99.90
62991;DHT22;49084;48.204;16.202;2023-04-02T07:57:40;9.40;99.90
62991;DHT22;49084;48.204;16.202;2023-04-02T08:00:09;9.50;99.90
62991;DHT22;49084;48.204;16.202;2023-04-02T08:02:35;9.60;99.90
62991;DHT22;49084;48.204;16.202;2023-04-02T08:05:00;9.70;99.90
62991;DHT22;49084;48.204;16.202;2023-04-02T08:07:27;9.60;99.90
62991;DHT22;49084;48.204;16.202;2023-04-02T08:09:52;9.60;99.90
62991;DHT22;49084;48.204;16.202;2023-04-02T08:12:18;9.60;99.90
62991;DHT22;49084;48.204;16.202;2023-04-02T08:14:44;9.60;99.90
62991;DHT22;49084;48.204;16.202;2023-04-02T08:17:10;9.60;99.90
62991;DHT22;49084;48.204;16.202;2023-04-02T08:19:35;9.60;99.90
62991;DHT22;49084;48.204;16.202;2023-04-02T08:22:01;9.60;99.90
62991;DHT22;49084;48.204;16.202;2023-04-02T08:24:27;9.50;99.90
62991;DHT22;49084;48.204;16.202;2023-04-02T08:26:53;9.40;99.90
62991;DHT22;49084;48.204;16.202;2023-04-02T08:29:19;9.40;99.90
62991;DHT22;49084;48.204;16.202;2023-04-02T08:31:45;9.40;99.90
62991;DHT22;49084;48.204;16.202;2023-04-02T08:34:11;9.50;99.90
62991;DHT22;49084;48.204;16.202;2023-04-02T08:36:38;9.60;99.90
62991;DHT22;49084;48.204;16.202;2023-04-02T08:39:06;9.70;99.90
62991;DHT22;49084;48.204;16.202;2023-04-02T08:41:57;9.60;99.90
62991;DHT22;49084;48.204;16.202;2023-04-02T08:47:33;9.50;99.90
62991;DHT22;49084;48.204;16.202;2023-04-02T08:52:58;9.50;99.90
62991;DHT22;49084;48.204;16.202;2023-04-02T08:55:35;9.50;99.90
62991;DHT22;49084;48.204;16.202;2023-04-02T09:00:43;9.50;99.90
62991;DHT22;49084;48.204;16.202;2023-04-02T09:05:43;9.40;99.90
62991;DHT22;49084;48.204;16.202;2023-04-02T09:08:21;9.30;99.90
62991;DHT22;49084;48.204;16.202;2023-04-02T09:13:25;9.20;99.90
62991;DHT22;49084;48.204;16.202;2023-04-02T09:18:31;9.20;99.90
62991;DHT22;49084;48.204;16.202;2023-04-02T09:20:57;9.10;99.90
62991;DHT22;49084;48.204;16.202;2023-04-02T09:23:24;9.10;99.90
62991;DHT22;49084;48.204;16.202;2023-04-02T09:25:53;9.10;99.90
62991;DHT22;49084;48.204;16.202;2023-04-02T09:28:19;9.00;99.90
62991;DHT22;49084;48.204;16.202;2023-04-02T09:33:46;9.00;99.90
62991;DHT22;49084;48.204;16.202;2023-04-02T09:36:34;9.10;99.90
62991;DHT22;49084;48.204;16.202;2023-04-02T09:41:34;9.20;99.90
62991;DHT22;49084;48.204;16.202;2023-04-02T09:44:26;9.20;99.90
62991;DHT22;49084;48.204;16.202;2023-04-02T09:49:31;9.10;99.90
62991;DHT22;49084;48.204;16.202;2023-04-02T09:52:27;9.20;99.90
62991;DHT22;49084;48.204;16.202;2023-04-02T09:57:42;9.90;99.90
62991;DHT22;49084;48.204;16.202;2023-04-02T10:00:22;10.10;99.90
62991;DHT22;49084;48.204;16.202;2023-04-02T10:05:25;11.10;99.90
62991;DHT22;49084;48.204;16.202;2023-04-02T10:07:52;11.80;99.90
62991;DHT22;49084;48.204;16.202;2023-04-02T10:10:39;12.20;99.90
62991;DHT22;49084;48.204;16.202;2023-04-02T10:13:21;12.30;99.90
62991;DHT22;49084;48.204;16.202;2023-04-02T10:16:11;12.30;99.90
62991;DHT22;49084;48.204;16.202;2023-04-02T10:18:56;12.50;99.90
62991;DHT22;49084;48.204;16.202;2023-04-02T10:21:25;12.40;99.90
62991;DHT22;49084;48.204;16.202;2023-04-02T10:23:53;13.00;99.90
62991;DHT22;49084;48.204;16.202;2023-04-02T10:35:00;13.70;99.90
62991;DHT22;49084;48.204;16.202;2023-04-02T10:37:43;13.50;99.90
62991;DHT22;49084;48.204;16.202;2023-04-02T10:43:31;13.90;99.90
62991;DHT22;49084;48.204;16.202;2023-04-02T10:46:51;14.10;99.90
62991;DHT22;49084;48.204;16.202;2023-04-02T10:49:41;13.90;99.90
62991;DHT22;49084;48.204;16.202;2023-04-02T10:52:33;13.60;99.90
62991;DHT22;49084;48.204;16.202;2023-04-02T10:55:28;12.50;99.90
62991;DHT22;49084;48.204;16.202;2023-04-02T10:57:56;12.70;99.90
62991;DHT22;49084;48.204;16.202;2023-04-02T11:00:30;12.30;99.90
62991;DHT22;49084;48.204;16.202;2023-04-02T11:03:17;12.00;99.90
62991;DHT22;49084;48.204;16.202;2023-04-02T11:05:49;11.80;99.90
62991;DHT22;49084;48.204;16.202;2023-04-02T11:08:25;11.60;99.90
62991;DHT22;49084;48.204;16.202;2023-04-02T11:10:53;11.60;99.90
62991;DHT22;49084;48.204;16.202;2023-04-02T11:13:34;11.50;99.90
62991;DHT22;49084;48.204;16.202;2023-04-02T11:16:01;11.30;99.90
62991;DHT22;49084;48.204;16.202;2023-04-02T11:18:33;11.20;99.90
62991;DHT22;49084;48.204;16.202;2023-04-02T11:21:06;11.20;99.90
62991;DHT22;49084;48.204;16.202;2023-04-02T11:23:51;11.00;99.90
62991;DHT22;49084;48.204;16.202;2023-04-02T11:26:42;10.90;99.90
62991;DHT22;49084;48.204;16.202;2023-04-02T11:29:27;10.90;99.90
62991;DHT22;49084;48.204;16.202;2023-04-02T11:37:42;10.80;99.90
62991;DHT22;49084;48.204;16.202;2023-04-02T11:42:42;10.60;99.90
62991;DHT22;49084;48.204;16.202;2023-04-02T11:55:32;9.60;99.90
62991;DHT22;49084;48.204;16.202;2023-04-02T12:05:53;9.00;99.90
62991;DHT22;49084;48.204;16.202;2023-04-02T12:10:59;9.10;99.90
62991;DHT22;49084;48.204;16.202;2023-04-02T12:16:13;9.20;99.90
62991;DHT22;49084;48.204;16.202;2023-04-02T12:18:46;9.20;99.90
62991;DHT22;49084;48.204;16.202;2023-04-02T12:21:18;9.20;99.90
62991;DHT22;49084;48.204;16.202;2023-04-02T12:23:45;9.20;99.90
62991;DHT22;49084;48.204;16.202;2023-04-02T12:26:29;9.20;99.90
62991;DHT22;49084;48.204;16.202;2023-04-02T12:31:50;9.20;99.90
62991;DHT22;49084;48.204;16.202;2023-04-02T12:34:22;8.90;99.90
62991;DHT22;49084;48.204;16.202;2023-04-02T12:36:57;8.80;99.90
62991;DHT22;49084;48.204;16.202;2023-04-02T12:39:24;8.70;99.90
62991;DHT22;49084;48.204;16.202;2023-04-02T12:41:50;8.80;99.90
62991;DHT22;49084;48.204;16.202;2023-04-02T12:44:19;8.70;99.90
62991;DHT22;49084;48.204;16.202;2023-04-02T12:46:49;8.70;99.90
62991;DHT22;49084;48.204;16.202;2023-04-02T12:51:50;8.80;99.90
62991;DHT22;49084;48.204;16.202;2023-04-02T12:54:17;8.70;99.90
62991;DHT22;49084;48.204;16.202;2023-04-02T12:56:48;8.60;99.90
62991;DHT22;49084;48.204;16.202;2023-04-02T12:59:37;8.50;99.90
62991;DHT22;49084;48.204;16.202;2023-04-02T13:02:25;8.50;99.90
62991;DHT22;49084;48.204;16.202;2023-04-02T13:04:55;8.60;99.90
62991;DHT22;49084;48.204;16.202;2023-04-02T13:07:24;8.60;99.90
62991;DHT22;49084;48.204;16.202;2023-04-02T13:10:37;8.60;99.90
62991;DHT22;49084;48.204;16.202;2023-04-02T13:12:39;8.60;99.90
62991;DHT22;49084;48.204;16.202;2023-04-02T13:15:27;8.60;99.90
62991;DHT22;49084;48.204;16.202;2023-04-02T13:25:55;8.90;99.90
62991;DHT22;49084;48.204;16.202;2023-04-02T13:28:21;8.90;99.90
62991;DHT22;49084;48.204;16.202;2023-04-02T13:30:47;8.90;99.90
62991;DHT22;49084;48.204;16.202;2023-04-02T13:33:14;8.90;99.90
62991;DHT22;49084;48.204;16.202;2023-04-02T13:35:40;8.90;99.90
62991;DHT22;49084;48.204;16.202;2023-04-02T13:38:06;8.90;99.90
62991;DHT22;49084;48.204;16.202;2023-04-02T13:40:34;8.90;99.90
62991;DHT22;49084;48.204;16.202;2023-04-02T13:43:02;8.80;99.90
62991;DHT22;49084;48.204;16.202;2023-04-02T13:45:36;8.80;99.90
62991;DHT22;49084;48.204;16.202;2023-04-02T13:48:04;8.90;99.90
62991;DHT22;49084;48.204;16.202;2023-04-02T13:50:32;8.90;99.90
62991;DHT22;49084;48.204;16.202;2023-04-02T13:53:04;9.10;99.90
62991;DHT22;49084;48.204;16.202;2023-04-02T13:55:35;9.30;99.90
62991;DHT22;49084;48.204;16.202;2023-04-02T13:58:02;9.50;99.90
62991;DHT22;49084;48.204;16.202;2023-04-02T14:00:29;9.70;99.90
62991;DHT22;49084;48.204;16.202;2023-04-02T14:03:03;10.00;99.90
62991;DHT22;49084;48.204;16.202;2023-04-02T14:34:32;8.70;99.90
62991;DHT22;49084;48.204;16.202;2023-04-02T14:42:20;8.60;99.90
62991;DHT22;49084;48.204;16.202;2023-04-02T14:44:59;8.60;99.90
62991;DHT22;49084;48.204;16.202;2023-04-02T14:47:50;8.50;99.90
62991;DHT22;49084;48.204;16.202;2023-04-02T14:50:25;8.40;99.90
62991;DHT22;49084;48.204;16.202;2023-04-02T14:52:55;8.40;99.90
62991;DHT22;49084;48.204;16.202;2023-04-02T14:55:40;8.40;99.90
62991;DHT22;49084;48.204;16.202;2023-04-02T14:58:42;8.50;99.90
62991;DHT22;49084;48.204;16.202;2023-04-02T15:01:22;8.50;99.90
62991;DHT22;49084;48.204;16.202;2023-04-02T15:04:01;8.60;99.90
62991;DHT22;49084;48.204;16.202;2023-04-02T15:06:35;8.80;99.90
62991;DHT22;49084;48.204;16.202;2023-04-02T15:09:04;8.90;99.90
62991;DHT22;49084;48.204;16.202;2023-04-02T15:11:57;8.90;99.90
62991;DHT22;49084;48.204;16.202;2023-04-02T15:16:54;8.90;99.90
62991;DHT22;49084;48.204;16.202;2023-04-02T15:19:20;8.80;99.90
62991;DHT22;49084;48.204;16.202;2023-04-02T15:24:41;9.10;99.90
62991;DHT22;49084;48.204;16.202;2023-04-02T15:30:38;9.10;99.90
62991;DHT22;49084;48.204;16.202;2023-04-02T15:38:43;8.90;99.90
62991;DHT22;49084;48.204;16.202;2023-04-02T15:41:19;8.80;99.90
62991;DHT22;49084;48.204;16.202;2023-04-02T16:08:23;8.40;99.90
62991;DHT22;49084;48.204;16.202;2023-04-02T16:10:51;8.40;99.90
62991;DHT22;49084;48.204;16.202;2023-04-02T16:16:08;8.30;99.90
62991;DHT22;49084;48.204;16.202;2023-04-02T16:18:42;8.20;99.90
62991;DHT22;49084;48.204;16.202;2023-04-02T16:21:13;8.10;99.90
62991;DHT22;49084;48.204;16.202;2023-04-02T16:23:41;8.00;99.90
62991;DHT22;49084;48.204;16.202;2023-04-02T16:28:56;7.90;99.90
62991;DHT22;49084;48.204;16.202;2023-04-02T16:36:59;7.80;99.90
62991;DHT22;49084;48.204;16.202;2023-04-02T16:42:10;7.70;99.90
62991;DHT22;49084;48.204;16.202;2023-04-02T16:44:46;7.70;99.90
62991;DHT22;49084;48.204;16.202;2023-04-02T16:47:38;7.60;99.90
62991;DHT22;49084;48.204;16.202;2023-04-02T16:56:19;7.50;99.90
62991;DHT22;49084;48.204;16.202;2023-04-02T17:01:58;7.50;99.90
62991;DHT22;49084;48.204;16.202;2023-04-02T17:07:33;7.60;99.90
62991;DHT22;49084;48.204;16.202;2023-04-02T17:10:28;7.60;99.90
62991;DHT22;49084;48.204;16.202;2023-04-02T17:13:07;7.50;99.90
62991;DHT22;49084;48.204;16.202;2023-04-02T17:15:37;7.40;99.90
62991;DHT22;49084;48.204;16.202;2023-04-02T17:18:19;7.30;99.90
62991;DHT22;49084;48.204;16.202;2023-04-02T17:20:47;7.20;99.90
62991;DHT22;49084;48.204;16.202;2023-04-02T17:23:14;7.10;99.90
62991;DHT22;49084;48.204;16.202;2023-04-02T17:26:07;7.00;99.90
62991;DHT22;49084;48.204;16.202;2023-04-02T17:28:34;6.80;99.90
62991;DHT22;49084;48.204;16.202;2023-04-02T17:31:22;6.70;99.90
62991;DHT22;49084;48.204;16.202;2023-04-02T17:33:49;6.70;99.90
62991;DHT22;49084;48.204;16.202;2023-04-02T17:36:30;6.60;99.90
62991;DHT22;49084;48.204;16.202;2023-04-02T17:39:22;6.50;99.90
62991;DHT22;49084;48.204;16.202;2023-04-02T18:06:03;6.10;99.90
62991;DHT22;49084;48.204;16.202;2023-04-02T18:14:26;6.10;99.90
62991;DHT22;49084;48.204;16.202;2023-04-02T18:17:07;6.10;99.90
62991;DHT22;49084;48.204;16.202;2023-04-02T18:25:40;6.00;99.90
62991;DHT22;49084;48.204;16.202;2023-04-02T18:28:19;6.00;99.90
62991;DHT22;49084;48.204;16.202;2023-04-02T18:31:13;5.90;99.90
62991;DHT22;49084;48.204;16.202;2023-04-02T18:39:11;5.90;99.90
62991;DHT22;49084;48.204;16.202;2023-04-02T18:47:42;5.80;99.90
62991;DHT22;49084;48.204;16.202;2023-04-02T18:50:38;5.80;99.90
62991;DHT22;49084;48.204;16.202;2023-04-02T18:53:15;5.80;99.90
62991;DHT22;49084;48.204;16.202;2023-04-02T18:56:03;5.70;99.90
62991;DHT22;49084;48.204;16.202;2023-04-02T18:58:50;5.70;99.90
62991;DHT22;49084;48.204;16.202;2023-04-02T19:01:20;5.70;99.90
62991;DHT22;49084;48.204;16.202;2023-04-02T19:03:55;5.70;99.90
62991;DHT22;49084;48.204;16.202;2023-04-02T19:06:28;5.70;99.90
62991;DHT22;49084;48.204;16.202;2023-04-02T19:09:30;5.70;99.90
62991;DHT22;49084;48.204;16.202;2023-04-02T19:11:58;5.70;99.90
62991;DHT22;49084;48.204;16.202;2023-04-02T19:14:25;5.60;99.90
62991;DHT22;49084;48.204;16.202;2023-04-02T19:19:45;5.60;99.90
62991;DHT22;49084;48.204;16.202;2023-04-02T19:33:44;5.40;99.90
62991;DHT22;49084;48.204;16.202;2023-04-02T19:36:38;5.40;99.90
62991;DHT22;49084;48.204;16.202;2023-04-02T19:44:49;5.30;99.90
62991;DHT22;49084;48.204;16.202;2023-04-02T19:47:17;5.30;99.90
62991;DHT22;49084;48.204;16.202;2023-04-02T19:49:44;5.30;99.90
62991;DHT22;49084;48.204;16.202;2023-04-02T19:52:10;5.30;99.90
62991;DHT22;49084;48.204;16.202;2023-04-02T19:54:36;5.30;99.90
62991;DHT22;49084;48.204;16.202;2023-04-02T19:57:03;5.30;99.90
62991;DHT22;49084;48.204;16.202;2023-04-02T19:59:30;5.30;99.90
62991;DHT22;49084;48.204;16.202;2023-04-02T20:01:56;5.30;99.90
62991;DHT22;49084;48.204;16.202;2023-04-02T20:04:23;5.30;99.90
62991;DHT22;49084;48.204;16.202;2023-04-02T20:06:49;5.30;99.90
62991;DHT22;49084;48.204;16.202;2023-04-02T20:09:16;5.30;99.90
62991;DHT22;49084;48.204;16.202;2023-04-02T20:11:42;5.30;99.90
62991;DHT22;49084;48.204;16.202;2023-04-02T20:14:08;5.30;99.90
62991;DHT22;49084;48.204;16.202;2023-04-02T20:16:34;5.20;99.90
62991;DHT22;49084;48.204;16.202;2023-04-02T20:19:20;5.20;99.90
62991;DHT22;49084;48.204;16.202;2023-04-02T20:21:46;5.20;99.90
62991;DHT22;49084;48.204;16.202;2023-04-02T20:24:12;5.20;99.90
62991;DHT22;49084;48.204;16.202;2023-04-02T20:26:38;5.20;99.90
62991;DHT22;49084;48.204;16.202;2023-04-02T20:29:04;5.20;99.90
62991;DHT22;49084;48.204;16.202;2023-04-02T20:31:30;5.20;99.90
62991;DHT22;49084;48.204;16.202;2023-04-02T20:33:57;5.20;99.90
62991;DHT22;49084;48.204;16.202;2023-04-02T20:36:23;5.20;99.90
62991;DHT22;49084;48.204;16.202;2023-04-02T20:38:50;5.20;99.90
62991;DHT22;49084;48.204;16.202;2023-04-02T20:41:17;5.20;99.90
62991;DHT22;49084;48.204;16.202;2023-04-02T20:43:43;5.20;99.90
62991;DHT22;49084;48.204;16.202;2023-04-02T20:46:09;5.20;99.90
62991;DHT22;49084;48.204;16.202;2023-04-02T20:48:35;5.30;99.90
62991;DHT22;49084;48.204;16.202;2023-04-02T20:51:03;5.20;99.90
62991;DHT22;49084;48.204;16.202;2023-04-02T20:53:31;5.20;99.90
62991;DHT22;49084;48.204;16.202;2023-04-02T20:56:06;5.20;99.90
62991;DHT22;49084;48.204;16.202;2023-04-02T20:58:33;5.20;99.90
62991;DHT22;49084;48.204;16.202;2023-04-02T21:01:17;5.20;99.90
62991;DHT22;49084;48.204;16.202;2023-04-02T21:03:43;5.20;99.90
62991;DHT22;49084;48.204;16.202;2023-04-02T21:06:17;5.30;99.90
62991;DHT22;49084;48.204;16.202;2023-04-02T21:08:43;5.20;99.90
62991;DHT22;49084;48.204;16.202;2023-04-02T21:11:10;5.30;99.90
62991;DHT22;49084;48.204;16.202;2023-04-02T21:13:36;5.30;99.90
62991;DHT22;49084;48.204;16.202;2023-04-02T21:18:40;5.20;99.90
62991;DHT22;49084;48.204;16.202;2023-04-02T21:21:06;5.30;99.90
62991;DHT22;49084;48.204;16.202;2023-04-02T21:23:32;5.20;99.90
62991;DHT22;49084;48.204;16.202;2023-04-02T21:26:01;5.20;99.90
62991;DHT22;49084;48.204;16.202;2023-04-02T21:28:28;5.30;99.90
62991;DHT22;49084;48.204;16.202;2023-04-02T21:31:09;5.20;99.90
62991;DHT22;49084;48.204;16.202;2023-04-02T21:33:37;5.20;99.90
62991;DHT22;49084;48.204;16.202;2023-04-02T21:36:09;5.20;99.90
62991;DHT22;49084;48.204;16.202;2023-04-02T21:38:36;5.20;99.90
62991;DHT22;49084;48.204;16.202;2023-04-02T21:43:40;5.20;99.90
62991;DHT22;49084;48.204;16.202;2023-04-02T21:46:05;5.20;99.90
62991;DHT22;49084;48.204;16.202;2023-04-02T21:48:31;5.20;99.90
62991;DHT22;49084;48.204;16.202;2023-04-02T21:51:06;5.20;99.90
62991;DHT22;49084;48.204;16.202;2023-04-02T21:53:32;5.20;99.90
62991;DHT22;49084;48.204;16.202;2023-04-02T21:56:06;5.10;99.90
62991;DHT22;49084;48.204;16.202;2023-04-02T21:58:33;5.10;99.90
62991;DHT22;49084;48.204;16.202;2023-04-02T22:00:59;5.10;99.90
62991;DHT22;49084;48.204;16.202;2023-04-02T22:03:25;5.10;99.90
62991;DHT22;49084;48.204;16.202;2023-04-02T22:06:14;5.10;99.90
62991;DHT22;49084;48.204;16.202;2023-04-02T22:08:42;5.10;99.90